KREO/REO METAR and TAF weather

Enter ICAO airport designator
Station Type Date Time Source
KREO METAR 2020/02/25 11:52 UTC NOAA

KREO 251152Z AUTO 15005KT M09/M12 A3050 RMK AO1 SLP351 T10941117 11006 21100 53007


Station Type Date Time Source
KREO Decoded METAR 2020/02/25 11:52 UTC NOAA

ROME, OR, United States (KREO) 42-35N 117-52W 1235M
Feb 25, 2020 - 06:52 AM EST / 2020.02.25 1152 UTC
Wind: from the SSE (150 degrees) at 6 MPH (5 KT):0
Temperature: 15.1 F (-9.4 C)
Windchill: 6 F (-14 C):1
Dew Point: 10.9 F (-11.7 C)
Relative Humidity: 83%
Pressure (altimeter): 30.5 in. Hg (1032 hPa)
Pressure tendency: 0.02 inches (0.7 hPa) higher than three hours ago
ob: KREO 251152Z AUTO 15005KT M09/M12 A3050 RMK AO1 SLP351 T10941117 11006 21100 53007
cycle: 12

Station Type Date Time Source
KREO TAF UTC NOAA

Error!

Example: see airport list